createdAt,value
2023-04-02T00:01:07.021Z,99682.97
2023-04-02T00:04:00.897Z,99715.63
2023-04-02T00:06:34.766Z,99724.63
2023-04-02T00:09:22.222Z,99728.88
2023-04-02T00:11:54.989Z,99718.00
2023-04-02T00:14:34.088Z,99700.34
2023-04-02T00:17:05.031Z,99704.94
2023-04-02T00:19:47.571Z,99680.59
2023-04-02T00:22:20.383Z,99729.25
2023-04-02T00:24:52.455Z,99714.97
2023-04-02T00:27:21.155Z,99695.34
2023-04-02T00:29:53.654Z,99737.53
2023-04-02T00:32:26.555Z,99704.13
2023-04-02T00:34:55.655Z,99701.31
2023-04-02T00:37:28.219Z,99706.13
2023-04-02T00:40:01.740Z,99707.78
2023-04-02T00:42:32.674Z,99713.47
2023-04-02T00:45:02.534Z,99693.31
2023-04-02T00:47:36.800Z,99741.28
2023-04-02T00:50:18.784Z,99700.00
2023-04-02T00:53:03.881Z,99729.16
2023-04-02T00:56:01.681Z,99742.34
2023-04-02T00:58:46.077Z,99731.56
2023-04-02T01:01:49.581Z,99730.16
2023-04-02T01:04:39.188Z,99743.06
2023-04-02T01:10:38.039Z,99734.88
2023-04-02T01:13:36.993Z,99745.69
2023-04-02T01:16:19.573Z,99729.72
2023-04-02T01:19:04.305Z,99721.00
2023-04-02T01:22:00.894Z,99727.88
2023-04-02T01:24:38.176Z,99745.41
2023-04-02T01:27:27.179Z,99724.69
2023-04-02T01:30:05.683Z,99730.09
2023-04-02T01:36:09.220Z,99724.69
2023-04-02T01:38:58.757Z,99747.56
2023-04-02T01:42:26.233Z,99733.81
2023-04-02T01:45:12.221Z,99731.38
2023-04-02T01:47:58.021Z,99756.66
2023-04-02T01:50:38.154Z,99733.59
2023-04-02T01:53:24.555Z,99744.72
2023-04-02T01:55:57.214Z,99739.34
2023-04-02T01:58:35.191Z,99748.44
2023-04-02T02:01:23.387Z,99738.03
2023-04-02T02:04:10.016Z,99774.63
2023-04-02T02:07:14.666Z,99754.66
2023-04-02T02:10:01.993Z,99752.72
2023-04-02T02:12:38.333Z,99787.28
2023-04-02T02:15:24.528Z,99778.28
2023-04-02T02:18:08.246Z,99745.06
2023-04-02T02:21:04.362Z,99759.69
2023-04-02T02:23:48.730Z,99780.19
2023-04-02T02:26:40.993Z,99769.91
2023-04-02T02:29:31.044Z,99783.22
2023-04-02T02:32:26.568Z,99766.97
2023-04-02T02:35:22.374Z,99768.81
2023-04-02T02:38:33.623Z,99789.63
2023-04-02T02:41:18.572Z,99780.63
2023-04-02T02:44:27.558Z,99783.16
2023-04-02T02:47:15.519Z,99795.50
2023-04-02T02:50:06.817Z,99804.19
2023-04-02T02:53:00.887Z,99813.22
2023-04-02T02:55:38.350Z,99795.19
2023-04-02T02:58:37.926Z,99806.72
2023-04-02T03:01:19.205Z,99807.44
2023-04-02T03:07:20.510Z,99825.13
2023-04-02T03:10:18.955Z,99801.41
2023-04-02T03:13:17.558Z,99818.13
2023-04-02T03:16:39.853Z,99820.66
2023-04-02T03:19:37.409Z,99829.94
2023-04-02T03:22:38.238Z,99849.69
2023-04-02T03:25:19.981Z,99830.72
2023-04-02T03:28:11.895Z,99817.69
2023-04-02T03:31:06.962Z,99841.69
2023-04-02T03:33:48.686Z,99836.47
2023-04-02T03:36:43.060Z,99840.47
2023-04-02T03:39:57.960Z,99837.38
2023-04-02T03:42:52.176Z,99856.00
2023-04-02T03:45:44.323Z,99843.25
2023-04-02T03:48:31.738Z,99826.00
2023-04-02T03:51:34.472Z,99825.84
2023-04-02T03:54:26.392Z,99864.66
2023-04-02T03:57:17.401Z,99840.94
2023-04-02T04:00:01.302Z,99838.09
2023-04-02T04:03:06.237Z,99850.91
2023-04-02T04:05:57.391Z,99864.03
2023-04-02T04:08:42.098Z,99861.06
2023-04-02T04:11:30.386Z,99860.66
2023-04-02T04:14:46.520Z,99881.16
2023-04-02T04:17:46.724Z,99880.38
2023-04-02T04:20:23.748Z,99876.06
2023-04-02T04:23:20.484Z,99876.84
2023-04-02T04:26:10.105Z,99875.84
2023-04-02T04:28:58.607Z,99881.31
2023-04-02T04:31:56.144Z,99884.91
2023-04-02T04:34:48.773Z,99866.53
2023-04-02T04:37:29.472Z,99883.56
2023-04-02T04:40:12.341Z,99877.72
2023-04-02T04:42:56.350Z,99913.75
2023-04-02T04:45:47.741Z,99922.38
2023-04-02T04:48:25.317Z,99936.56
2023-04-02T04:50:57.230Z,99933.59
2023-04-02T04:53:34.918Z,99934.88
2023-04-02T04:59:36.292Z,99931.19
2023-04-02T05:02:22.478Z,99953.31
2023-04-02T05:04:56.380Z,99942.91
2023-04-02T05:07:45.995Z,99954.47
2023-04-02T05:10:36.476Z,99976.97
2023-04-02T05:13:29.366Z,99971.94
2023-04-02T05:16:32.595Z,99953.91
2023-04-02T05:19:12.333Z,99983.03
2023-04-02T05:22:29.553Z,99966.16
2023-04-02T05:25:18.703Z,99980.84
2023-04-02T05:28:14.136Z,99979.34
2023-04-02T05:31:02.976Z,99969.78
2023-04-02T05:34:15.113Z,99978.00
2023-04-02T05:36:47.524Z,99968.25
2023-04-02T05:39:23.708Z,99978.66
2023-04-02T05:42:11.441Z,100002.03
2023-04-02T05:45:05.077Z,100006.03
2023-04-02T05:50:28.933Z,100036.19
2023-04-02T05:53:04.609Z,100027.22
2023-04-02T05:55:41.241Z,100031.41
2023-04-02T05:58:52.838Z,100051.22
2023-04-02T06:02:02.388Z,100068.50
2023-04-02T06:04:53.950Z,100081.59
2023-04-02T06:07:55.654Z,100063.97
2023-04-02T06:10:37.659Z,100069.91
2023-04-02T06:13:20.786Z,100062.59
2023-04-02T06:15:52.964Z,100063.28
2023-04-02T06:18:29.036Z,100083.56
2023-04-02T06:20:58.187Z,100083.09
2023-04-02T06:23:35.351Z,100097.78
2023-04-02T06:26:27.351Z,100100.06
2023-04-02T06:29:18.472Z,100108.78
2023-04-02T06:31:56.983Z,100108.59
2023-04-02T06:34:28.568Z,100123.56
2023-04-02T06:37:14.348Z,100122.84
2023-04-02T06:39:48.745Z,100118.72
2023-04-02T06:42:37.376Z,100129.31
2023-04-02T06:45:43.660Z,100135.34
2023-04-02T06:49:19.882Z,100131.47
2023-04-02T06:51:53.306Z,100133.16
2023-04-02T06:54:21.626Z,100136.41
2023-04-02T06:56:58.664Z,100109.31
2023-04-02T06:59:46.318Z,100127.63
2023-04-02T07:02:38.265Z,100109.69
2023-04-02T07:05:09.471Z,100106.63
2023-04-02T07:07:41.130Z,100143.44
2023-04-02T07:10:12.525Z,100136.88
2023-04-02T07:12:40.398Z,100143.09
2023-04-02T07:15:11.149Z,100168.13
2023-04-02T07:17:39.162Z,100151.31
2023-04-02T07:20:07.414Z,100151.09
2023-04-02T07:22:35.210Z,100153.88
2023-04-02T07:25:04.295Z,100152.66
2023-04-02T07:27:31.939Z,100181.66
2023-04-02T07:29:59.465Z,100184.41
2023-04-02T07:32:27.149Z,100172.50
2023-04-02T07:34:54.852Z,100167.28
2023-04-02T07:37:22.480Z,100181.59
2023-04-02T07:39:50.028Z,100182.31
2023-04-02T07:42:17.649Z,100216.41
2023-04-02T07:44:45.268Z,100211.19
2023-04-02T07:47:12.853Z,100206.22
2023-04-02T07:49:42.938Z,100221.91
2023-04-02T07:52:11.920Z,100222.69
2023-04-02T07:54:40.753Z,100221.00
2023-04-02T07:57:08.470Z,100212.94
2023-04-02T07:59:36.569Z,100183.84
2023-04-02T08:02:14.403Z,100185.84
2023-04-02T08:04:51.636Z,100196.41
2023-04-02T08:07:19.244Z,100200.22
2023-04-02T08:09:46.758Z,100211.59
2023-04-02T08:12:14.701Z,100212.28
2023-04-02T08:14:42.321Z,100238.22
2023-04-02T08:17:09.898Z,100209.88
2023-04-02T08:19:48.176Z,100210.59
2023-04-02T08:22:22.213Z,100228.34
2023-04-02T08:24:49.850Z,100244.94
2023-04-02T08:27:17.700Z,100248.31
2023-04-02T08:29:45.249Z,100239.34
2023-04-02T08:32:15.914Z,100256.69
2023-04-02T08:34:44.785Z,100257.81
2023-04-02T08:37:13.369Z,100253.94
2023-04-02T08:39:41.335Z,100259.59
2023-04-02T08:42:39.864Z,100274.34
2023-04-02T08:45:32.406Z,100276.91
2023-04-02T08:48:03.431Z,100273.84
2023-04-02T08:50:37.543Z,100257.69
2023-04-02T08:53:12.528Z,100233.91
2023-04-02T08:56:05.455Z,100267.34
2023-04-02T08:58:46.313Z,100252.78
2023-04-02T09:01:39.268Z,100250.66
2023-04-02T09:04:15.228Z,100269.06
2023-04-02T09:06:44.033Z,100241.94
2023-04-02T09:09:16.794Z,100269.22
2023-04-02T09:11:56.900Z,100285.25
2023-04-02T09:14:46.328Z,100265.91
2023-04-02T09:17:20.244Z,100280.22
2023-04-02T09:19:54.592Z,100270.34
2023-04-02T09:22:29.398Z,100278.38
2023-04-02T09:25:02.170Z,100268.72
2023-04-02T09:27:35.248Z,100273.31
2023-04-02T09:30:03.944Z,100282.56
2023-04-02T09:32:48.243Z,100272.41
2023-04-02T09:35:36.421Z,100280.22
2023-04-02T09:38:12.296Z,100276.16
2023-04-02T09:40:55.161Z,100287.84
2023-04-02T09:43:34.461Z,100286.63
2023-04-02T09:46:17.951Z,100297.97
2023-04-02T09:48:53.442Z,100279.63
2023-04-02T09:51:26.875Z,100275.31
2023-04-02T09:54:03.805Z,100290.91
2023-04-02T09:56:39.957Z,100254.81
2023-04-02T09:59:13.877Z,100298.41
2023-04-02T10:01:45.721Z,100294.72
2023-04-02T10:04:45.284Z,100296.19
2023-04-02T10:07:43.883Z,100288.88
2023-04-02T10:10:36.538Z,100291.94
2023-04-02T10:13:27.391Z,100281.91
2023-04-02T10:16:41.318Z,100259.72
2023-04-02T10:19:27.201Z,100280.09
2023-04-02T10:26:17.341Z,100280.28
2023-04-02T10:28:47.753Z,100268.25
2023-04-02T10:31:36.502Z,100280.00
2023-04-02T10:34:17.620Z,100257.13
2023-04-02T10:36:54.417Z,100275.22
2023-04-02T10:39:26.186Z,100258.25
2023-04-02T10:42:06.001Z,100273.53
2023-04-02T10:44:55.625Z,100252.47
2023-04-02T10:47:31.178Z,100233.09
2023-04-02T10:50:40.648Z,100269.75
2023-04-02T10:53:16.479Z,100261.47
2023-04-02T10:55:49.627Z,100251.72
2023-04-02T10:58:26.881Z,100238.94
2023-04-02T11:01:04.107Z,100264.22
2023-04-02T11:03:41.695Z,100263.53
2023-04-02T11:06:31.212Z,100273.16
2023-04-02T11:09:04.986Z,100269.13
2023-04-02T11:11:40.184Z,100276.88
2023-04-02T11:14:26.693Z,100274.00
2023-04-02T11:16:56.803Z,100286.25
2023-04-02T11:19:34.107Z,100306.25
2023-04-02T11:22:06.671Z,100287.66
2023-04-02T11:24:44.012Z,100304.47
2023-04-02T11:27:11.499Z,100326.50
2023-04-02T11:30:36.224Z,100312.03
2023-04-02T11:34:19.524Z,100317.81
2023-04-02T11:36:53.867Z,100379.41
2023-04-02T11:40:12.854Z,100363.03
2023-04-02T11:46:02.229Z,100387.03
2023-04-02T11:48:36.642Z,100352.31
2023-04-02T11:51:36.151Z,100385.31
2023-04-02T11:54:04.961Z,100360.75
2023-04-02T11:56:39.166Z,100385.09
2023-04-02T11:59:18.504Z,100350.03
2023-04-02T12:02:07.627Z,100379.97
2023-04-02T12:04:44.570Z,100377.34
2023-04-02T12:07:52.166Z,100359.47
2023-04-02T12:10:36.853Z,100329.00
2023-04-02T12:13:04.462Z,100316.38
2023-04-02T12:15:46.702Z,100295.63
2023-04-02T12:18:24.103Z,100320.19
2023-04-02T12:20:57.990Z,100288.09
2023-04-02T12:23:31.871Z,100297.22
2023-04-02T12:26:03.498Z,100299.88
2023-04-02T12:28:33.876Z,100292.91
2023-04-02T12:31:25.335Z,100305.63
2023-04-02T12:33:53.296Z,100286.88
2023-04-02T12:36:23.788Z,100267.03
2023-04-02T12:38:54.123Z,100279.91
2023-04-02T12:41:24.866Z,100288.53
2023-04-02T12:44:01.337Z,100283.94
2023-04-02T12:46:31.285Z,100276.75
2023-04-02T12:49:08.651Z,100265.72
2023-04-02T12:51:37.363Z,100259.72
2023-04-02T12:54:05.540Z,100261.81
2023-04-02T12:56:33.267Z,100254.56
2023-04-02T12:59:01.546Z,100253.41
2023-04-02T13:01:32.154Z,100242.88
2023-04-02T13:04:14.963Z,100242.84
2023-04-02T13:06:52.303Z,100239.16
2023-04-02T13:09:40.536Z,100230.72
2023-04-02T13:12:35.114Z,100225.16
2023-04-02T13:15:08.514Z,100217.25
2023-04-02T13:17:50.654Z,100214.81
2023-04-02T13:21:04.207Z,100207.84
2023-04-02T13:23:34.703Z,100213.91
2023-04-02T13:26:20.578Z,100216.28
2023-04-02T13:29:00.366Z,100212.69
2023-04-02T13:31:32.742Z,100206.63
2023-04-02T13:34:01.703Z,100200.44
2023-04-02T13:36:29.707Z,100204.25
2023-04-02T13:38:57.689Z,100206.41
2023-04-02T13:41:40.481Z,100206.16
2023-04-02T13:44:30.794Z,100202.59
2023-04-02T13:46:59.523Z,100203.03
2023-04-02T13:49:27.644Z,100205.19
2023-04-02T13:52:00.588Z,100209.34
2023-04-02T13:54:40.780Z,100206.25
2023-04-02T13:57:08.611Z,100209.34
2023-04-02T13:59:36.436Z,100206.03
2023-04-02T14:02:14.074Z,100197.16
2023-04-02T14:04:49.324Z,100201.34
2023-04-02T14:07:32.016Z,100193.00
2023-04-02T14:10:12.965Z,100202.56
2023-04-02T14:12:57.644Z,100195.38
2023-04-02T14:16:10.810Z,100193.19
2023-04-02T14:18:56.359Z,100212.66
2023-04-02T14:21:38.843Z,100212.06
2023-04-02T14:24:25.248Z,100201.28
2023-04-02T14:27:21.278Z,100214.91
2023-04-02T14:29:52.004Z,100195.81
2023-04-02T14:32:49.183Z,100203.22
2023-04-02T14:35:44.362Z,100195.41
2023-04-02T14:38:31.183Z,100203.44
2023-04-02T14:41:05.934Z,100193.59
2023-04-02T14:43:43.186Z,100195.31
2023-04-02T14:46:12.321Z,100185.66
2023-04-02T14:49:15.279Z,100196.78
2023-04-02T14:51:56.109Z,100188.88
2023-04-02T14:54:45.643Z,100196.31
2023-04-02T14:57:38.682Z,100202.75
2023-04-02T15:00:25.123Z,100206.81
2023-04-02T15:02:59.056Z,100196.44
2023-04-02T15:05:47.204Z,100198.59
2023-04-02T15:08:27.865Z,100198.72
2023-04-02T15:11:12.083Z,100196.19
2023-04-02T15:13:55.347Z,100199.78
2023-04-02T15:16:28.306Z,100202.03
2023-04-02T15:18:57.349Z,100199.91
2023-04-02T15:21:59.891Z,100194.88
2023-04-02T15:24:42.668Z,100193.78
2023-04-02T15:27:26.198Z,100195.34
2023-04-02T15:30:05.705Z,100179.78
2023-04-02T15:32:33.366Z,100197.03
2023-04-02T15:35:21.222Z,100192.00
2023-04-02T15:38:13.560Z,100193.44
2023-04-02T15:40:51.627Z,100200.13
2023-04-02T15:43:29.412Z,100190.59
2023-04-02T15:46:18.966Z,100193.22
2023-04-02T15:49:05.220Z,100196.09
2023-04-02T15:52:01.682Z,100198.19
2023-04-02T15:54:48.118Z,100201.03
2023-04-02T15:57:43.122Z,100203.72
2023-04-02T16:00:30.684Z,100205.78
2023-04-02T16:03:20.482Z,100203.66
2023-04-02T16:05:56.303Z,100203.88
2023-04-02T16:08:23.927Z,100207.44
2023-04-02T16:10:51.664Z,100208.13
2023-04-02T16:13:31.944Z,100211.09
2023-04-02T16:16:08.693Z,100211.56
2023-04-02T16:19:00.705Z,100214.97
2023-04-02T16:21:46.057Z,100213.09
2023-04-02T16:24:14.107Z,100213.34
2023-04-02T16:26:55.556Z,100216.50
2023-04-02T16:29:55.333Z,100218.00
2023-04-02T16:32:35.343Z,100226.88
2023-04-02T16:35:42.670Z,100224.22
2023-04-02T16:38:37.023Z,100224.91
2023-04-02T16:41:15.823Z,100225.91
2023-04-02T16:44:00.029Z,100230.31
2023-04-02T16:46:39.767Z,100232.44
2023-04-02T16:49:17.328Z,100241.16
2023-04-02T16:52:19.008Z,100241.72
2023-04-02T16:55:11.131Z,100248.22
2023-04-02T16:57:49.781Z,100246.69
2023-04-02T17:00:35.846Z,100245.63
2023-04-02T17:03:28.073Z,100248.53
2023-04-02T17:06:06.390Z,100257.50
2023-04-02T17:08:52.477Z,100253.31
2023-04-02T17:11:31.294Z,100251.28
2023-04-02T17:14:13.136Z,100255.25
2023-04-02T17:16:46.718Z,100257.94
2023-04-02T17:19:16.697Z,100249.91
2023-04-02T17:21:47.463Z,100254.16
2023-04-02T17:24:30.160Z,100266.38
2023-04-02T17:27:11.566Z,100264.69
2023-04-02T17:29:43.603Z,100256.50
2023-04-02T17:32:21.715Z,100259.34
2023-04-02T17:34:49.751Z,100264.00
2023-04-02T17:37:35.033Z,100265.28
2023-04-02T17:40:33.350Z,100272.78
2023-04-02T17:43:29.315Z,100274.94
2023-04-02T17:46:08.062Z,100279.34
2023-04-02T17:48:46.872Z,100279.25
2023-04-02T17:51:35.718Z,100298.53
2023-04-02T17:54:38.420Z,100297.72
2023-04-02T17:58:01.889Z,100295.63
2023-04-02T18:01:01.393Z,100306.75
2023-04-02T18:03:49.934Z,100308.19
2023-04-02T18:06:40.175Z,100317.53
2023-04-02T18:09:23.117Z,100321.19
2023-04-02T18:12:21.526Z,100330.09
2023-04-02T18:15:13.723Z,100327.97
2023-04-02T18:21:14.100Z,100350.69
2023-04-02T18:23:58.800Z,100355.88
2023-04-02T18:27:13.968Z,100361.47
2023-04-02T18:30:33.713Z,100365.41
2023-04-02T18:33:43.856Z,100377.75
2023-04-02T18:36:30.279Z,100379.91
2023-04-02T18:39:06.758Z,100371.69
2023-04-02T18:42:45.789Z,100384.81
2023-04-02T18:45:44.105Z,100385.84
2023-04-02T18:48:22.601Z,100390.22
2023-04-02T18:51:06.480Z,100395.09
2023-04-02T18:53:36.477Z,100408.91
2023-04-02T18:56:12.231Z,100393.59
2023-04-02T18:58:57.694Z,100401.66
2023-04-02T19:04:34.919Z,100416.28
2023-04-02T19:07:15.505Z,100415.75
2023-04-02T19:09:50.384Z,100387.25
2023-04-02T19:12:21.719Z,100407.50
2023-04-02T19:14:52.391Z,100419.44
2023-04-02T19:17:37.362Z,100428.06
2023-04-02T19:20:29.837Z,100423.50
2023-04-02T19:23:14.180Z,100435.19
2023-04-02T19:25:58.938Z,100442.28
2023-04-02T19:28:32.715Z,100431.75
2023-04-02T19:31:33.990Z,100423.63
2023-04-02T19:34:34.188Z,100431.56
2023-04-02T19:37:25.867Z,100430.22
2023-04-02T19:40:13.022Z,100444.53
2023-04-02T19:42:49.271Z,100435.53
2023-04-02T19:45:24.085Z,100449.28
2023-04-02T19:47:53.219Z,100447.44
2023-04-02T19:50:24.591Z,100451.63
2023-04-02T19:52:53.739Z,100435.81
2023-04-02T19:55:23.468Z,100456.66
2023-04-02T19:57:54.671Z,100442.72
2023-04-02T20:00:28.077Z,100428.25
2023-04-02T20:02:58.224Z,100443.00
2023-04-02T20:05:28.510Z,100462.22
2023-04-02T20:07:58.641Z,100505.59
2023-04-02T20:10:29.451Z,100481.75
2023-04-02T20:12:59.894Z,100458.81
2023-04-02T20:15:32.706Z,100409.09
2023-04-02T20:18:06.476Z,100397.19
2023-04-02T20:20:49.596Z,100418.19
2023-04-02T20:23:22.349Z,100416.72
2023-04-02T20:25:56.839Z,100399.47
2023-04-02T20:28:28.434Z,100459.91
2023-04-02T20:31:20.555Z,100431.47
2023-04-02T20:33:50.879Z,100442.72
2023-04-02T20:36:20.478Z,100446.56
2023-04-02T20:38:51.653Z,100492.53
2023-04-02T20:41:22.336Z,100480.75
2023-04-02T20:43:50.655Z,100482.56
2023-04-02T20:46:42.919Z,100448.03
2023-04-02T20:49:12.131Z,100449.09
2023-04-02T20:51:40.023Z,100453.44
2023-04-02T20:54:08.183Z,100470.38
2023-04-02T20:56:41.937Z,100458.81
2023-04-02T20:59:09.900Z,100460.41
2023-04-02T21:01:42.558Z,100452.34
2023-04-02T21:04:10.947Z,100454.34
2023-04-02T21:06:42.448Z,100482.81
2023-04-02T21:09:18.022Z,100492.13
2023-04-02T21:11:46.737Z,100499.69
2023-04-02T21:14:14.269Z,100507.50
2023-04-02T21:16:42.435Z,100455.84
2023-04-02T21:19:11.050Z,100500.13
2023-04-02T21:21:39.752Z,100496.44
2023-04-02T21:24:09.906Z,100508.22
2023-04-02T21:26:41.110Z,100468.25
2023-04-02T21:29:11.822Z,100465.78
2023-04-02T21:31:41.709Z,100452.78
2023-04-02T21:34:13.746Z,100464.91
2023-04-02T21:36:47.775Z,100435.75
2023-04-02T21:39:21.965Z,100443.03
2023-04-02T21:41:52.025Z,100443.69
2023-04-02T21:44:22.758Z,100442.31
2023-04-02T21:46:53.748Z,100468.19
2023-04-02T21:49:23.217Z,100436.16
2023-04-02T21:51:51.871Z,100478.19
2023-04-02T21:54:20.361Z,100463.53
2023-04-02T21:56:49.175Z,100464.72
2023-04-02T21:59:17.814Z,100431.34
2023-04-02T22:01:50.902Z,100498.28
2023-04-02T22:04:24.950Z,100484.78
2023-04-02T22:06:56.977Z,100427.34
2023-04-02T22:09:26.928Z,100473.47
2023-04-02T22:12:01.650Z,100469.94
2023-04-02T22:14:29.987Z,100488.78
2023-04-02T22:16:58.955Z,100474.06
2023-04-02T22:19:27.198Z,100475.97
2023-04-02T22:21:56.515Z,100478.53
2023-04-02T22:24:25.283Z,100468.56
2023-04-02T22:26:53.580Z,100480.38
2023-04-02T22:29:21.611Z,100478.78
2023-04-02T22:31:49.369Z,100485.19
2023-04-02T22:34:17.221Z,100431.22
2023-04-02T22:36:45.224Z,100466.59
2023-04-02T22:39:15.751Z,100442.81
2023-04-02T22:41:43.988Z,100459.16
2023-04-02T22:44:16.707Z,100488.44
2023-04-02T22:46:44.701Z,100480.97
2023-04-02T22:49:12.761Z,100470.84
2023-04-02T22:51:40.999Z,100456.13
2023-04-02T22:54:08.747Z,100448.56
2023-04-02T22:56:37.823Z,100464.22
2023-04-02T22:59:06.069Z,100487.03
2023-04-02T23:01:37.204Z,100432.47
2023-04-02T23:04:08.426Z,100458.53
2023-04-02T23:06:37.444Z,100461.44
2023-04-02T23:09:05.673Z,100473.66
2023-04-02T23:11:33.885Z,100491.03
2023-04-02T23:14:01.473Z,100444.34
2023-04-02T23:16:30.132Z,100462.06
2023-04-02T23:18:59.425Z,100453.03
2023-04-02T23:21:27.811Z,100458.97
2023-04-02T23:23:56.889Z,100449.19
2023-04-02T23:26:30.025Z,100468.84
2023-04-02T23:28:59.588Z,100459.94
2023-04-02T23:31:28.185Z,100448.25
2023-04-02T23:33:55.987Z,100486.59
2023-04-02T23:36:32.699Z,100497.94
2023-04-02T23:39:05.558Z,100470.56
2023-04-02T23:41:35.801Z,100486.38
2023-04-02T23:44:04.544Z,100464.78
2023-04-02T23:46:33.317Z,100475.03
2023-04-02T23:49:01.727Z,100449.56
2023-04-02T23:51:33.220Z,100448.00
2023-04-02T23:54:01.562Z,100454.03
2023-04-02T23:56:29.565Z,100487.09
2023-04-02T23:58:58.895Z,100463.69
